sensor_id;sensor_type;location;lat;lon;timestamp;P1;durP1;ratioP1;P2;durP2;ratioP2
6860;SDS011;3469;47.060;15.460;2022-07-29T00:01:20;6.70;;;6.10;;
6860;SDS011;3469;47.060;15.460;2022-07-29T00:03:48;6.73;;;6.03;;
6860;SDS011;3469;47.060;15.460;2022-07-29T00:06:16;6.77;;;6.17;;
6860;SDS011;3469;47.060;15.460;2022-07-29T00:08:45;7.37;;;6.77;;
6860;SDS011;3469;47.060;15.460;2022-07-29T00:11:13;7.77;;;6.90;;
6860;SDS011;3469;47.060;15.460;2022-07-29T00:13:41;6.53;;;6.03;;
6860;SDS011;3469;47.060;15.460;2022-07-29T00:16:16;6.80;;;6.20;;
6860;SDS011;3469;47.060;15.460;2022-07-29T00:18:46;6.93;;;6.10;;
6860;SDS011;3469;47.060;15.460;2022-07-29T00:21:14;7.27;;;6.57;;
6860;SDS011;3469;47.060;15.460;2022-07-29T00:23:42;6.77;;;6.17;;
6860;SDS011;3469;47.060;15.460;2022-07-29T00:26:10;7.07;;;6.37;;
6860;SDS011;3469;47.060;15.460;2022-07-29T00:28:39;6.87;;;5.80;;
6860;SDS011;3469;47.060;15.460;2022-07-29T00:31:07;8.47;;;6.20;;
6860;SDS011;3469;47.060;15.460;2022-07-29T00:33:35;7.07;;;6.40;;
6860;SDS011;3469;47.060;15.460;2022-07-29T00:36:05;7.60;;;6.80;;
6860;SDS011;3469;47.060;15.460;2022-07-29T00:38:32;8.80;;;6.57;;
6860;SDS011;3469;47.060;15.460;2022-07-29T00:41:01;7.10;;;6.57;;
6860;SDS011;3469;47.060;15.460;2022-07-29T00:43:30;9.37;;;7.47;;
6860;SDS011;3469;47.060;15.460;2022-07-29T00:45:58;7.47;;;6.67;;
6860;SDS011;3469;47.060;15.460;2022-07-29T00:48:26;7.23;;;6.53;;
6860;SDS011;3469;47.060;15.460;2022-07-29T00:50:55;8.03;;;7.30;;
6860;SDS011;3469;47.060;15.460;2022-07-29T00:53:25;7.17;;;6.57;;
6860;SDS011;3469;47.060;15.460;2022-07-29T00:55:54;6.97;;;6.23;;
6860;SDS011;3469;47.060;15.460;2022-07-29T00:58:23;7.93;;;7.33;;
6860;SDS011;3469;47.060;15.460;2022-07-29T01:00:52;8.37;;;7.20;;
6860;SDS011;3469;47.060;15.460;2022-07-29T01:03:20;7.20;;;6.40;;
6860;SDS011;3469;47.060;15.460;2022-07-29T01:05:49;6.90;;;6.20;;
6860;SDS011;3469;47.060;15.460;2022-07-29T01:08:17;8.03;;;6.90;;
6860;SDS011;3469;47.060;15.460;2022-07-29T01:10:48;7.30;;;6.70;;
6860;SDS011;3469;47.060;15.460;2022-07-29T01:13:17;6.97;;;6.37;;
6860;SDS011;3469;47.060;15.460;2022-07-29T01:15:47;8.37;;;6.90;;
6860;SDS011;3469;47.060;15.460;2022-07-29T01:18:20;6.70;;;6.10;;
6860;SDS011;3469;47.060;15.460;2022-07-29T01:20:57;8.27;;;7.57;;
6860;SDS011;3469;47.060;15.460;2022-07-29T01:24:06;8.60;;;7.80;;
6860;SDS011;3469;47.060;15.460;2022-07-29T01:26:46;7.80;;;7.10;;
6860;SDS011;3469;47.060;15.460;2022-07-29T01:29:19;7.37;;;6.67;;
6860;SDS011;3469;47.060;15.460;2022-07-29T01:31:56;7.83;;;7.03;;
6860;SDS011;3469;47.060;15.460;2022-07-29T01:34:32;7.23;;;6.63;;
6860;SDS011;3469;47.060;15.460;2022-07-29T01:37:06;7.30;;;6.60;;
6860;SDS011;3469;47.060;15.460;2022-07-29T01:39:39;8.10;;;7.37;;
6860;SDS011;3469;47.060;15.460;2022-07-29T01:42:12;8.13;;;7.20;;
6860;SDS011;3469;47.060;15.460;2022-07-29T01:44:48;7.63;;;6.93;;
6860;SDS011;3469;47.060;15.460;2022-07-29T01:47:19;7.33;;;6.33;;
6860;SDS011;3469;47.060;15.460;2022-07-29T01:49:50;7.73;;;7.00;;
6860;SDS011;3469;47.060;15.460;2022-07-29T01:52:20;7.83;;;7.07;;
6860;SDS011;3469;47.060;15.460;2022-07-29T01:54:52;7.83;;;7.13;;
6860;SDS011;3469;47.060;15.460;2022-07-29T01:57:25;7.83;;;7.23;;
6860;SDS011;3469;47.060;15.460;2022-07-29T01:59:56;7.27;;;6.67;;
6860;SDS011;3469;47.060;15.460;2022-07-29T02:02:25;6.70;;;6.20;;
6860;SDS011;3469;47.060;15.460;2022-07-29T02:04:54;7.80;;;7.20;;
6860;SDS011;3469;47.060;15.460;2022-07-29T02:07:23;7.67;;;6.87;;
6860;SDS011;3469;47.060;15.460;2022-07-29T02:09:53;7.50;;;6.90;;
6860;SDS011;3469;47.060;15.460;2022-07-29T02:12:21;7.17;;;6.53;;
6860;SDS011;3469;47.060;15.460;2022-07-29T02:14:50;7.23;;;6.63;;
6860;SDS011;3469;47.060;15.460;2022-07-29T02:17:22;7.87;;;7.07;;
6860;SDS011;3469;47.060;15.460;2022-07-29T02:19:53;7.43;;;6.73;;
6860;SDS011;3469;47.060;15.460;2022-07-29T02:22:24;7.20;;;6.60;;
6860;SDS011;3469;47.060;15.460;2022-07-29T02:24:52;7.47;;;6.77;;
6860;SDS011;3469;47.060;15.460;2022-07-29T02:27:21;10.20;;;8.30;;
6860;SDS011;3469;47.060;15.460;2022-07-29T02:29:51;8.30;;;7.57;;
6860;SDS011;3469;47.060;15.460;2022-07-29T02:32:21;8.07;;;7.30;;
6860;SDS011;3469;47.060;15.460;2022-07-29T02:34:51;8.50;;;7.70;;
6860;SDS011;3469;47.060;15.460;2022-07-29T02:37:20;7.83;;;7.13;;
6860;SDS011;3469;47.060;15.460;2022-07-29T02:39:49;7.53;;;6.83;;
6860;SDS011;3469;47.060;15.460;2022-07-29T02:42:21;7.77;;;7.07;;
6860;SDS011;3469;47.060;15.460;2022-07-29T02:44:50;11.33;;;8.27;;
6860;SDS011;3469;47.060;15.460;2022-07-29T02:47:18;8.17;;;7.37;;
6860;SDS011;3469;47.060;15.460;2022-07-29T02:49:52;9.40;;;8.20;;
6860;SDS011;3469;47.060;15.460;2022-07-29T02:52:24;8.90;;;8.20;;
6860;SDS011;3469;47.060;15.460;2022-07-29T02:54:55;8.90;;;8.00;;
6860;SDS011;3469;47.060;15.460;2022-07-29T02:57:28;12.20;;;8.23;;
6860;SDS011;3469;47.060;15.460;2022-07-29T03:00:00;9.50;;;8.70;;
6860;SDS011;3469;47.060;15.460;2022-07-29T03:02:35;8.70;;;7.80;;
6860;SDS011;3469;47.060;15.460;2022-07-29T03:05:05;7.90;;;7.30;;
6860;SDS011;3469;47.060;15.460;2022-07-29T03:07:36;8.50;;;7.70;;
6860;SDS011;3469;47.060;15.460;2022-07-29T03:10:06;8.67;;;7.90;;
6860;SDS011;3469;47.060;15.460;2022-07-29T03:12:39;9.63;;;8.60;;
6860;SDS011;3469;47.060;15.460;2022-07-29T03:15:08;8.27;;;7.57;;
6860;SDS011;3469;47.060;15.460;2022-07-29T03:17:39;9.63;;;8.00;;
6860;SDS011;3469;47.060;15.460;2022-07-29T03:20:08;9.93;;;8.30;;
6860;SDS011;3469;47.060;15.460;2022-07-29T03:22:38;9.50;;;8.63;;
6860;SDS011;3469;47.060;15.460;2022-07-29T03:25:10;9.93;;;8.30;;
6860;SDS011;3469;47.060;15.460;2022-07-29T03:27:39;10.70;;;8.83;;
6860;SDS011;3469;47.060;15.460;2022-07-29T03:30:08;10.17;;;9.00;;
6860;SDS011;3469;47.060;15.460;2022-07-29T03:32:45;9.90;;;9.10;;
6860;SDS011;3469;47.060;15.460;2022-07-29T03:35:32;9.40;;;8.60;;
6860;SDS011;3469;47.060;15.460;2022-07-29T03:38:00;9.40;;;8.53;;
6860;SDS011;3469;47.060;15.460;2022-07-29T03:40:30;10.43;;;8.70;;
6860;SDS011;3469;47.060;15.460;2022-07-29T03:43:00;10.20;;;9.20;;
6860;SDS011;3469;47.060;15.460;2022-07-29T03:45:30;12.67;;;9.90;;
6860;SDS011;3469;47.060;15.460;2022-07-29T03:48:00;8.70;;;7.90;;
6860;SDS011;3469;47.060;15.460;2022-07-29T03:50:30;9.37;;;8.53;;
6860;SDS011;3469;47.060;15.460;2022-07-29T03:52:59;7.93;;;7.33;;
6860;SDS011;3469;47.060;15.460;2022-07-29T03:55:28;8.73;;;7.97;;
6860;SDS011;3469;47.060;15.460;2022-07-29T03:57:57;8.87;;;8.13;;
6860;SDS011;3469;47.060;15.460;2022-07-29T04:00:25;9.10;;;8.30;;
6860;SDS011;3469;47.060;15.460;2022-07-29T04:02:54;10.43;;;9.40;;
6860;SDS011;3469;47.060;15.460;2022-07-29T04:05:24;10.40;;;9.50;;
6860;SDS011;3469;47.060;15.460;2022-07-29T04:07:53;8.50;;;7.80;;
6860;SDS011;3469;47.060;15.460;2022-07-29T04:10:21;12.13;;;10.93;;
6860;SDS011;3469;47.060;15.460;2022-07-29T04:12:57;8.97;;;8.17;;
6860;SDS011;3469;47.060;15.460;2022-07-29T04:15:26;9.70;;;8.77;;
6860;SDS011;3469;47.060;15.460;2022-07-29T04:17:57;10.50;;;8.97;;
6860;SDS011;3469;47.060;15.460;2022-07-29T04:20:27;9.60;;;8.63;;
6860;SDS011;3469;47.060;15.460;2022-07-29T04:22:56;8.57;;;7.83;;
6860;SDS011;3469;47.060;15.460;2022-07-29T04:25:24;11.23;;;8.90;;
6860;SDS011;3469;47.060;15.460;2022-07-29T04:27:53;10.30;;;9.30;;
6860;SDS011;3469;47.060;15.460;2022-07-29T04:30:28;10.27;;;9.23;;
6860;SDS011;3469;47.060;15.460;2022-07-29T04:32:57;11.83;;;9.43;;
6860;SDS011;3469;47.060;15.460;2022-07-29T04:35:29;9.40;;;8.40;;
6860;SDS011;3469;47.060;15.460;2022-07-29T04:38:04;12.00;;;9.53;;
6860;SDS011;3469;47.060;15.460;2022-07-29T04:40:41;12.07;;;9.40;;
6860;SDS011;3469;47.060;15.460;2022-07-29T04:43:09;9.23;;;8.40;;
6860;SDS011;3469;47.060;15.460;2022-07-29T04:45:39;10.20;;;8.00;;
6860;SDS011;3469;47.060;15.460;2022-07-29T04:48:09;9.93;;;9.00;;
6860;SDS011;3469;47.060;15.460;2022-07-29T04:50:39;9.90;;;9.00;;
6860;SDS011;3469;47.060;15.460;2022-07-29T04:53:07;9.47;;;8.57;;
6860;SDS011;3469;47.060;15.460;2022-07-29T04:55:36;10.20;;;9.20;;
6860;SDS011;3469;47.060;15.460;2022-07-29T04:58:04;11.80;;;9.50;;
6860;SDS011;3469;47.060;15.460;2022-07-29T05:00:34;10.53;;;9.43;;
6860;SDS011;3469;47.060;15.460;2022-07-29T05:03:02;10.80;;;9.83;;
6860;SDS011;3469;47.060;15.460;2022-07-29T05:05:30;10.47;;;9.37;;
6860;SDS011;3469;47.060;15.460;2022-07-29T05:08:00;8.90;;;8.03;;
6860;SDS011;3469;47.060;15.460;2022-07-29T05:10:28;9.80;;;8.80;;
6860;SDS011;3469;47.060;15.460;2022-07-29T05:12:56;9.40;;;8.57;;
6860;SDS011;3469;47.060;15.460;2022-07-29T05:15:25;9.80;;;8.83;;
6860;SDS011;3469;47.060;15.460;2022-07-29T05:17:53;13.50;;;9.47;;
6860;SDS011;3469;47.060;15.460;2022-07-29T05:20:21;12.43;;;8.80;;
6860;SDS011;3469;47.060;15.460;2022-07-29T05:22:53;9.90;;;8.40;;
6860;SDS011;3469;47.060;15.460;2022-07-29T05:25:23;10.53;;;9.60;;
6860;SDS011;3469;47.060;15.460;2022-07-29T05:28:09;9.63;;;8.70;;
6860;SDS011;3469;47.060;15.460;2022-07-29T05:30:38;11.63;;;8.53;;
6860;SDS011;3469;47.060;15.460;2022-07-29T05:33:06;9.90;;;8.90;;
6860;SDS011;3469;47.060;15.460;2022-07-29T05:35:55;10.33;;;9.33;;
6860;SDS011;3469;47.060;15.460;2022-07-29T05:38:26;9.47;;;8.60;;
6860;SDS011;3469;47.060;15.460;2022-07-29T05:40:57;9.80;;;8.90;;
6860;SDS011;3469;47.060;15.460;2022-07-29T05:43:26;9.90;;;8.97;;
6860;SDS011;3469;47.060;15.460;2022-07-29T05:45:54;10.17;;;9.17;;
6860;SDS011;3469;47.060;15.460;2022-07-29T05:48:23;11.57;;;8.57;;
6860;SDS011;3469;47.060;15.460;2022-07-29T05:50:51;8.57;;;7.80;;
6860;SDS011;3469;47.060;15.460;2022-07-29T05:53:20;8.73;;;7.93;;
6860;SDS011;3469;47.060;15.460;2022-07-29T05:55:48;9.20;;;8.30;;
6860;SDS011;3469;47.060;15.460;2022-07-29T05:58:18;8.33;;;7.63;;
6860;SDS011;3469;47.060;15.460;2022-07-29T06:00:47;7.77;;;7.10;;
6860;SDS011;3469;47.060;15.460;2022-07-29T06:03:15;7.53;;;6.83;;
6860;SDS011;3469;47.060;15.460;2022-07-29T06:05:43;9.43;;;8.47;;
6860;SDS011;3469;47.060;15.460;2022-07-29T06:08:12;8.73;;;7.90;;
6860;SDS011;3469;47.060;15.460;2022-07-29T06:10:40;8.30;;;7.70;;
6860;SDS011;3469;47.060;15.460;2022-07-29T06:13:09;9.10;;;8.40;;
6860;SDS011;3469;47.060;15.460;2022-07-29T06:15:39;11.67;;;7.87;;
6860;SDS011;3469;47.060;15.460;2022-07-29T06:18:09;8.53;;;7.50;;
6860;SDS011;3469;47.060;15.460;2022-07-29T06:20:37;8.67;;;7.77;;
6860;SDS011;3469;47.060;15.460;2022-07-29T06:23:06;9.20;;;7.10;;
6860;SDS011;3469;47.060;15.460;2022-07-29T06:25:34;10.27;;;7.27;;
6860;SDS011;3469;47.060;15.460;2022-07-29T06:28:03;7.67;;;6.87;;
6860;SDS011;3469;47.060;15.460;2022-07-29T06:30:32;8.07;;;7.37;;
6860;SDS011;3469;47.060;15.460;2022-07-29T06:33:02;9.23;;;7.07;;
6860;SDS011;3469;47.060;15.460;2022-07-29T06:35:32;7.87;;;7.00;;
6860;SDS011;3469;47.060;15.460;2022-07-29T06:38:07;8.77;;;7.97;;
6860;SDS011;3469;47.060;15.460;2022-07-29T06:40:56;9.40;;;8.23;;
6860;SDS011;3469;47.060;15.460;2022-07-29T06:43:29;8.60;;;7.90;;
6860;SDS011;3469;47.060;15.460;2022-07-29T06:46:01;9.17;;;7.50;;
6860;SDS011;3469;47.060;15.460;2022-07-29T06:48:32;8.07;;;7.10;;
6860;SDS011;3469;47.060;15.460;2022-07-29T06:51:01;8.17;;;7.37;;
6860;SDS011;3469;47.060;15.460;2022-07-29T06:53:30;8.37;;;7.47;;
6860;SDS011;3469;47.060;15.460;2022-07-29T06:56:00;7.97;;;7.23;;
6860;SDS011;3469;47.060;15.460;2022-07-29T06:58:29;9.30;;;7.27;;
6860;SDS011;3469;47.060;15.460;2022-07-29T07:00:57;9.30;;;6.53;;
6860;SDS011;3469;47.060;15.460;2022-07-29T07:03:28;7.80;;;7.17;;
6860;SDS011;3469;47.060;15.460;2022-07-29T07:05:58;8.03;;;7.07;;
6860;SDS011;3469;47.060;15.460;2022-07-29T07:08:26;7.07;;;6.47;;
6860;SDS011;3469;47.060;15.460;2022-07-29T07:10:54;7.53;;;6.50;;
6860;SDS011;3469;47.060;15.460;2022-07-29T07:13:23;7.40;;;6.70;;
6860;SDS011;3469;47.060;15.460;2022-07-29T07:15:52;7.80;;;6.50;;
6860;SDS011;3469;47.060;15.460;2022-07-29T07:18:20;7.80;;;7.10;;
6860;SDS011;3469;47.060;15.460;2022-07-29T07:20:49;7.40;;;6.70;;
6860;SDS011;3469;47.060;15.460;2022-07-29T07:23:18;7.07;;;6.47;;
6860;SDS011;3469;47.060;15.460;2022-07-29T07:25:47;6.93;;;6.23;;
6860;SDS011;3469;47.060;15.460;2022-07-29T07:28:18;7.00;;;6.40;;
6860;SDS011;3469;47.060;15.460;2022-07-29T07:30:50;7.70;;;6.93;;
6860;SDS011;3469;47.060;15.460;2022-07-29T07:33:19;9.50;;;7.13;;
6860;SDS011;3469;47.060;15.460;2022-07-29T07:35:47;7.93;;;7.07;;
6860;SDS011;3469;47.060;15.460;2022-07-29T07:38:15;7.30;;;6.60;;
6860;SDS011;3469;47.060;15.460;2022-07-29T07:40:45;9.00;;;6.60;;
6860;SDS011;3469;47.060;15.460;2022-07-29T07:43:14;7.03;;;6.30;;
6860;SDS011;3469;47.060;15.460;2022-07-29T07:45:42;9.00;;;5.73;;
6860;SDS011;3469;47.060;15.460;2022-07-29T07:48:10;7.20;;;6.33;;
6860;SDS011;3469;47.060;15.460;2022-07-29T07:50:38;7.13;;;6.53;;
6860;SDS011;3469;47.060;15.460;2022-07-29T07:53:07;7.40;;;5.63;;
6860;SDS011;3469;47.060;15.460;2022-07-29T07:55:38;7.60;;;6.07;;
6860;SDS011;3469;47.060;15.460;2022-07-29T07:58:29;6.70;;;5.67;;
6860;SDS011;3469;47.060;15.460;2022-07-29T08:00:57;6.13;;;5.53;;
6860;SDS011;3469;47.060;15.460;2022-07-29T08:03:25;10.23;;;5.87;;
6860;SDS011;3469;47.060;15.460;2022-07-29T08:05:53;5.93;;;5.33;;
6860;SDS011;3469;47.060;15.460;2022-07-29T08:08:22;5.97;;;5.40;;
6860;SDS011;3469;47.060;15.460;2022-07-29T08:10:50;6.07;;;5.67;;
6860;SDS011;3469;47.060;15.460;2022-07-29T08:13:23;5.63;;;5.13;;
6860;SDS011;3469;47.060;15.460;2022-07-29T08:15:56;6.10;;;5.47;;
6860;SDS011;3469;47.060;15.460;2022-07-29T08:18:28;6.40;;;5.43;;
6860;SDS011;3469;47.060;15.460;2022-07-29T08:20:57;7.00;;;5.77;;
6860;SDS011;3469;47.060;15.460;2022-07-29T08:23:26;6.73;;;5.30;;
6860;SDS011;3469;47.060;15.460;2022-07-29T08:26:14;5.60;;;5.10;;
6860;SDS011;3469;47.060;15.460;2022-07-29T08:28:43;6.53;;;5.33;;
6860;SDS011;3469;47.060;15.460;2022-07-29T08:31:14;5.33;;;4.83;;
6860;SDS011;3469;47.060;15.460;2022-07-29T08:33:44;5.33;;;4.60;;
6860;SDS011;3469;47.060;15.460;2022-07-29T08:36:12;7.33;;;4.87;;
6860;SDS011;3469;47.060;15.460;2022-07-29T08:38:40;5.70;;;5.20;;
6860;SDS011;3469;47.060;15.460;2022-07-29T08:41:09;5.63;;;5.13;;
6860;SDS011;3469;47.060;15.460;2022-07-29T08:43:37;5.23;;;4.80;;
6860;SDS011;3469;47.060;15.460;2022-07-29T08:46:08;5.67;;;4.87;;
6860;SDS011;3469;47.060;15.460;2022-07-29T08:48:38;6.40;;;4.20;;
6860;SDS011;3469;47.060;15.460;2022-07-29T08:51:07;6.03;;;5.40;;
6860;SDS011;3469;47.060;15.460;2022-07-29T08:53:36;6.27;;;4.90;;
6860;SDS011;3469;47.060;15.460;2022-07-29T08:56:04;10.53;;;5.57;;
6860;SDS011;3469;47.060;15.460;2022-07-29T08:58:34;6.73;;;4.77;;
6860;SDS011;3469;47.060;15.460;2022-07-29T09:01:04;6.80;;;4.70;;
6860;SDS011;3469;47.060;15.460;2022-07-29T09:03:38;6.10;;;5.50;;
6860;SDS011;3469;47.060;15.460;2022-07-29T09:06:08;5.13;;;4.73;;
6860;SDS011;3469;47.060;15.460;2022-07-29T09:08:36;5.00;;;4.60;;
6860;SDS011;3469;47.060;15.460;2022-07-29T09:11:04;5.67;;;5.13;;
6860;SDS011;3469;47.060;15.460;2022-07-29T09:13:34;5.60;;;4.80;;
6860;SDS011;3469;47.060;15.460;2022-07-29T09:16:02;4.90;;;4.60;;
6860;SDS011;3469;47.060;15.460;2022-07-29T09:18:35;7.60;;;5.47;;
6860;SDS011;3469;47.060;15.460;2022-07-29T09:21:07;5.87;;;5.30;;
6860;SDS011;3469;47.060;15.460;2022-07-29T09:24:00;5.70;;;5.10;;
6860;SDS011;3469;47.060;15.460;2022-07-29T09:26:30;7.03;;;6.43;;
6860;SDS011;3469;47.060;15.460;2022-07-29T09:29:01;5.90;;;4.83;;
6860;SDS011;3469;47.060;15.460;2022-07-29T09:31:38;4.87;;;4.47;;
6860;SDS011;3469;47.060;15.460;2022-07-29T09:34:09;4.87;;;4.50;;
6860;SDS011;3469;47.060;15.460;2022-07-29T09:36:41;5.73;;;5.23;;
6860;SDS011;3469;47.060;15.460;2022-07-29T09:39:09;6.70;;;5.17;;
6860;SDS011;3469;47.060;15.460;2022-07-29T09:41:45;8.00;;;5.67;;
6860;SDS011;3469;47.060;15.460;2022-07-29T09:44:14;5.77;;;5.27;;
6860;SDS011;3469;47.060;15.460;2022-07-29T09:46:58;5.43;;;4.93;;
6860;SDS011;3469;47.060;15.460;2022-07-29T09:49:34;5.40;;;5.00;;
6860;SDS011;3469;47.060;15.460;2022-07-29T09:52:03;7.13;;;5.23;;
6860;SDS011;3469;47.060;15.460;2022-07-29T09:54:33;5.60;;;5.20;;
6860;SDS011;3469;47.060;15.460;2022-07-29T09:57:04;5.00;;;4.40;;
6860;SDS011;3469;47.060;15.460;2022-07-29T09:59:33;5.70;;;5.17;;
6860;SDS011;3469;47.060;15.460;2022-07-29T10:02:15;6.23;;;4.60;;
6860;SDS011;3469;47.060;15.460;2022-07-29T10:04:50;5.63;;;5.13;;
6860;SDS011;3469;47.060;15.460;2022-07-29T10:07:19;5.77;;;5.27;;
6860;SDS011;3469;47.060;15.460;2022-07-29T10:09:52;5.97;;;5.47;;
6860;SDS011;3469;47.060;15.460;2022-07-29T10:12:23;5.00;;;4.50;;
6860;SDS011;3469;47.060;15.460;2022-07-29T10:14:51;5.20;;;4.40;;
6860;SDS011;3469;47.060;15.460;2022-07-29T10:17:19;4.93;;;4.53;;
6860;SDS011;3469;47.060;15.460;2022-07-29T10:19:48;5.27;;;4.87;;
6860;SDS011;3469;47.060;15.460;2022-07-29T10:22:18;3.93;;;3.63;;
6860;SDS011;3469;47.060;15.460;2022-07-29T10:25:07;4.80;;;4.40;;
6860;SDS011;3469;47.060;15.460;2022-07-29T10:27:36;5.20;;;4.67;;
6860;SDS011;3469;47.060;15.460;2022-07-29T10:30:06;5.47;;;4.30;;
6860;SDS011;3469;47.060;15.460;2022-07-29T10:32:42;6.40;;;5.33;;
6860;SDS011;3469;47.060;15.460;2022-07-29T10:35:47;8.17;;;4.80;;
6860;SDS011;3469;47.060;15.460;2022-07-29T10:38:32;4.20;;;3.80;;
6860;SDS011;3469;47.060;15.460;2022-07-29T10:41:18;5.20;;;4.27;;
6860;SDS011;3469;47.060;15.460;2022-07-29T10:43:59;6.30;;;4.50;;
6860;SDS011;3469;47.060;15.460;2022-07-29T10:46:29;4.77;;;4.23;;
6860;SDS011;3469;47.060;15.460;2022-07-29T10:49:08;6.13;;;4.80;;
6860;SDS011;3469;47.060;15.460;2022-07-29T10:51:52;5.20;;;4.80;;
6860;SDS011;3469;47.060;15.460;2022-07-29T10:54:39;4.33;;;3.93;;
6860;SDS011;3469;47.060;15.460;2022-07-29T10:57:20;4.57;;;4.17;;
6860;SDS011;3469;47.060;15.460;2022-07-29T11:00:31;5.53;;;4.40;;
6860;SDS011;3469;47.060;15.460;2022-07-29T11:03:01;4.80;;;4.33;;
6860;SDS011;3469;47.060;15.460;2022-07-29T11:08:35;5.10;;;4.60;;
6860;SDS011;3469;47.060;15.460;2022-07-29T11:14:09;4.30;;;3.80;;
6860;SDS011;3469;47.060;15.460;2022-07-29T11:19:33;6.40;;;4.33;;
6860;SDS011;3469;47.060;15.460;2022-07-29T11:22:08;5.43;;;5.03;;
6860;SDS011;3469;47.060;15.460;2022-07-29T11:24:43;11.80;;;5.20;;
6860;SDS011;3469;47.060;15.460;2022-07-29T11:27:16;6.63;;;4.73;;
6860;SDS011;3469;47.060;15.460;2022-07-29T11:29:50;4.87;;;4.47;;
6860;SDS011;3469;47.060;15.460;2022-07-29T11:32:24;5.30;;;4.80;;
6860;SDS011;3469;47.060;15.460;2022-07-29T11:35:11;4.77;;;4.30;;
6860;SDS011;3469;47.060;15.460;2022-07-29T11:41:21;10.40;;;5.10;;
6860;SDS011;3469;47.060;15.460;2022-07-29T11:43:51;6.57;;;4.57;;
6860;SDS011;3469;47.060;15.460;2022-07-29T11:49:12;7.40;;;4.97;;
6860;SDS011;3469;47.060;15.460;2022-07-29T11:51:41;7.10;;;5.00;;
6860;SDS011;3469;47.060;15.460;2022-07-29T11:54:14;5.23;;;4.80;;
6860;SDS011;3469;47.060;15.460;2022-07-29T11:56:54;5.00;;;4.57;;
6860;SDS011;3469;47.060;15.460;2022-07-29T11:59:25;5.33;;;4.80;;
6860;SDS011;3469;47.060;15.460;2022-07-29T12:02:00;7.00;;;4.70;;
6860;SDS011;3469;47.060;15.460;2022-07-29T12:04:48;6.50;;;4.60;;
6860;SDS011;3469;47.060;15.460;2022-07-29T12:07:18;5.20;;;4.70;;
6860;SDS011;3469;47.060;15.460;2022-07-29T12:09:58;5.57;;;4.97;;
6860;SDS011;3469;47.060;15.460;2022-07-29T12:12:28;5.13;;;4.63;;
6860;SDS011;3469;47.060;15.460;2022-07-29T12:14:56;5.13;;;4.73;;
6860;SDS011;3469;47.060;15.460;2022-07-29T12:17:24;4.50;;;4.10;;
6860;SDS011;3469;47.060;15.460;2022-07-29T12:19:56;4.87;;;4.37;;
6860;SDS011;3469;47.060;15.460;2022-07-29T12:22:25;5.70;;;4.40;;
6860;SDS011;3469;47.060;15.460;2022-07-29T12:24:54;6.13;;;5.33;;
6860;SDS011;3469;47.060;15.460;2022-07-29T12:27:44;7.17;;;5.50;;
6860;SDS011;3469;47.060;15.460;2022-07-29T12:30:15;6.33;;;5.73;;
6860;SDS011;3469;47.060;15.460;2022-07-29T12:32:45;5.73;;;5.33;;
6860;SDS011;3469;47.060;15.460;2022-07-29T12:35:15;6.30;;;5.50;;
6860;SDS011;3469;47.060;15.460;2022-07-29T12:37:46;7.80;;;4.90;;
6860;SDS011;3469;47.060;15.460;2022-07-29T12:40:18;6.10;;;5.60;;
6860;SDS011;3469;47.060;15.460;2022-07-29T12:43:06;5.10;;;4.63;;
6860;SDS011;3469;47.060;15.460;2022-07-29T12:45:36;5.30;;;4.80;;
6860;SDS011;3469;47.060;15.460;2022-07-29T12:48:05;5.53;;;4.70;;
6860;SDS011;3469;47.060;15.460;2022-07-29T12:50:35;5.17;;;4.67;;
6860;SDS011;3469;47.060;15.460;2022-07-29T12:53:10;6.00;;;4.20;;
6860;SDS011;3469;47.060;15.460;2022-07-29T12:55:44;5.80;;;4.87;;
6860;SDS011;3469;47.060;15.460;2022-07-29T12:58:26;8.47;;;4.83;;
6860;SDS011;3469;47.060;15.460;2022-07-29T13:01:00;7.97;;;5.27;;
6860;SDS011;3469;47.060;15.460;2022-07-29T13:03:47;5.30;;;4.80;;
6860;SDS011;3469;47.060;15.460;2022-07-29T13:06:27;4.67;;;4.27;;
6860;SDS011;3469;47.060;15.460;2022-07-29T13:08:59;5.50;;;5.00;;
6860;SDS011;3469;47.060;15.460;2022-07-29T13:11:29;5.40;;;4.93;;
6860;SDS011;3469;47.060;15.460;2022-07-29T13:14:01;9.67;;;4.63;;
6860;SDS011;3469;47.060;15.460;2022-07-29T13:16:32;5.23;;;4.70;;
6860;SDS011;3469;47.060;15.460;2022-07-29T13:19:07;6.63;;;5.27;;
6860;SDS011;3469;47.060;15.460;2022-07-29T13:21:37;5.13;;;4.73;;
6860;SDS011;3469;47.060;15.460;2022-07-29T13:24:07;5.30;;;4.80;;
6860;SDS011;3469;47.060;15.460;2022-07-29T13:26:39;6.00;;;5.00;;
6860;SDS011;3469;47.060;15.460;2022-07-29T13:29:09;4.87;;;4.47;;
6860;SDS011;3469;47.060;15.460;2022-07-29T13:31:37;5.67;;;5.17;;
6860;SDS011;3469;47.060;15.460;2022-07-29T13:34:05;6.80;;;4.63;;
6860;SDS011;3469;47.060;15.460;2022-07-29T13:36:34;6.40;;;5.10;;
6860;SDS011;3469;47.060;15.460;2022-07-29T13:39:07;5.00;;;4.60;;
6860;SDS011;3469;47.060;15.460;2022-07-29T13:41:35;4.80;;;4.50;;
6860;SDS011;3469;47.060;15.460;2022-07-29T13:44:04;6.40;;;5.20;;
6860;SDS011;3469;47.060;15.460;2022-07-29T13:46:34;5.50;;;5.00;;
6860;SDS011;3469;47.060;15.460;2022-07-29T13:49:05;5.00;;;4.60;;
6860;SDS011;3469;47.060;15.460;2022-07-29T13:51:34;8.30;;;5.60;;
6860;SDS011;3469;47.060;15.460;2022-07-29T13:54:02;5.97;;;5.37;;
6860;SDS011;3469;47.060;15.460;2022-07-29T13:56:30;5.67;;;5.10;;
6860;SDS011;3469;47.060;15.460;2022-07-29T13:58:59;4.97;;;4.53;;
6860;SDS011;3469;47.060;15.460;2022-07-29T14:01:27;6.20;;;5.60;;
6860;SDS011;3469;47.060;15.460;2022-07-29T14:03:58;10.00;;;4.93;;
6860;SDS011;3469;47.060;15.460;2022-07-29T14:06:26;5.97;;;5.20;;
6860;SDS011;3469;47.060;15.460;2022-07-29T14:08:55;6.20;;;5.70;;
6860;SDS011;3469;47.060;15.460;2022-07-29T14:11:23;7.03;;;4.80;;
6860;SDS011;3469;47.060;15.460;2022-07-29T14:13:52;5.33;;;4.83;;
6860;SDS011;3469;47.060;15.460;2022-07-29T14:16:20;5.23;;;4.83;;
6860;SDS011;3469;47.060;15.460;2022-07-29T14:18:48;5.57;;;5.03;;
6860;SDS011;3469;47.060;15.460;2022-07-29T14:21:18;7.80;;;5.50;;
6860;SDS011;3469;47.060;15.460;2022-07-29T14:23:46;5.30;;;4.90;;
6860;SDS011;3469;47.060;15.460;2022-07-29T14:26:14;5.10;;;4.70;;
6860;SDS011;3469;47.060;15.460;2022-07-29T14:28:49;6.13;;;5.47;;
6860;SDS011;3469;47.060;15.460;2022-07-29T14:31:18;7.00;;;4.77;;
6860;SDS011;3469;47.060;15.460;2022-07-29T14:33:46;5.40;;;4.90;;
6860;SDS011;3469;47.060;15.460;2022-07-29T14:36:15;5.20;;;4.70;;
6860;SDS011;3469;47.060;15.460;2022-07-29T14:38:44;5.27;;;4.87;;
6860;SDS011;3469;47.060;15.460;2022-07-29T14:41:13;5.80;;;5.40;;
6860;SDS011;3469;47.060;15.460;2022-07-29T14:43:41;7.53;;;5.90;;
6860;SDS011;3469;47.060;15.460;2022-07-29T14:46:10;6.33;;;5.70;;
6860;SDS011;3469;47.060;15.460;2022-07-29T14:48:38;6.00;;;5.50;;
6860;SDS011;3469;47.060;15.460;2022-07-29T14:51:06;7.80;;;5.40;;
6860;SDS011;3469;47.060;15.460;2022-07-29T14:53:35;5.03;;;4.53;;
6860;SDS011;3469;47.060;15.460;2022-07-29T14:56:04;6.83;;;5.57;;
6860;SDS011;3469;47.060;15.460;2022-07-29T14:58:53;6.60;;;5.30;;
6860;SDS011;3469;47.060;15.460;2022-07-29T15:01:21;6.10;;;5.57;;
6860;SDS011;3469;47.060;15.460;2022-07-29T15:03:50;5.67;;;5.17;;
6860;SDS011;3469;47.060;15.460;2022-07-29T15:06:24;6.07;;;5.43;;
6860;SDS011;3469;47.060;15.460;2022-07-29T15:08:53;7.13;;;5.13;;
6860;SDS011;3469;47.060;15.460;2022-07-29T15:11:23;5.63;;;4.90;;
6860;SDS011;3469;47.060;15.460;2022-07-29T15:13:52;5.37;;;4.97;;
6860;SDS011;3469;47.060;15.460;2022-07-29T15:16:20;5.67;;;5.20;;
6860;SDS011;3469;47.060;15.460;2022-07-29T15:18:49;5.63;;;5.13;;
6860;SDS011;3469;47.060;15.460;2022-07-29T15:21:18;5.50;;;5.00;;
6860;SDS011;3469;47.060;15.460;2022-07-29T15:23:46;7.03;;;5.43;;
6860;SDS011;3469;47.060;15.460;2022-07-29T15:26:14;4.90;;;4.50;;
6860;SDS011;3469;47.060;15.460;2022-07-29T15:28:44;6.33;;;4.80;;
6860;SDS011;3469;47.060;15.460;2022-07-29T15:31:12;7.40;;;5.27;;
6860;SDS011;3469;47.060;15.460;2022-07-29T15:33:41;5.33;;;4.83;;
6860;SDS011;3469;47.060;15.460;2022-07-29T15:36:09;7.27;;;5.50;;
6860;SDS011;3469;47.060;15.460;2022-07-29T15:38:58;5.20;;;4.70;;
6860;SDS011;3469;47.060;15.460;2022-07-29T15:41:27;5.83;;;4.43;;